sensor_id;sensor_type;location;lat;lon;timestamp;temperature;humidity
6903;DHT22;20232;49.408;8.702;2022-07-10T04:02:15;16.20;99.90
6903;DHT22;20232;49.408;8.702;2022-07-10T04:04:40;16.30;99.90
6903;DHT22;20232;49.408;8.702;2022-07-10T04:07:06;16.30;99.90
6903;DHT22;20232;49.408;8.702;2022-07-10T04:09:32;16.40;99.90
6903;DHT22;20232;49.408;8.702;2022-07-10T04:11:57;16.40;99.90
6903;DHT22;20232;49.408;8.702;2022-07-10T04:14:23;16.40;99.90
6903;DHT22;20232;49.408;8.702;2022-07-10T04:16:48;16.50;99.90
6903;DHT22;20232;49.408;8.702;2022-07-10T04:19:14;16.50;99.90
6903;DHT22;20232;49.408;8.702;2022-07-10T04:21:40;16.60;99.90
6903;DHT22;20232;49.408;8.702;2022-07-10T04:24:06;16.60;99.90
6903;DHT22;20232;49.408;8.702;2022-07-10T04:26:32;16.60;99.90
6903;DHT22;20232;49.408;8.702;2022-07-10T04:28:57;16.60;99.90
6903;DHT22;20232;49.408;8.702;2022-07-10T04:31:23;16.70;99.90
6903;DHT22;20232;49.408;8.702;2022-07-10T04:33:49;16.60;99.90
6903;DHT22;20232;49.408;8.702;2022-07-10T04:36:14;16.50;99.90
6903;DHT22;20232;49.408;8.702;2022-07-10T04:38:40;16.50;99.90
6903;DHT22;20232;49.408;8.702;2022-07-10T04:41:05;16.40;99.90
6903;DHT22;20232;49.408;8.702;2022-07-10T04:43:31;16.40;99.90
6903;DHT22;20232;49.408;8.702;2022-07-10T04:45:57;16.40;99.90
6903;DHT22;20232;49.408;8.702;2022-07-10T04:48:22;16.40;99.90
6903;DHT22;20232;49.408;8.702;2022-07-10T04:50:48;16.40;99.90
6903;DHT22;20232;49.408;8.702;2022-07-10T04:53:13;16.40;99.90
6903;DHT22;20232;49.408;8.702;2022-07-10T04:55:39;16.50;99.90
6903;DHT22;20232;49.408;8.702;2022-07-10T04:58:05;16.50;99.90
6903;DHT22;20232;49.408;8.702;2022-07-10T05:00:30;16.50;99.90
6903;DHT22;20232;49.408;8.702;2022-07-10T05:02:56;16.50;99.90
6903;DHT22;20232;49.408;8.702;2022-07-10T05:05:21;16.50;99.90
6903;DHT22;20232;49.408;8.702;2022-07-10T05:07:47;16.50;99.90
6903;DHT22;20232;49.408;8.702;2022-07-10T05:10:12;16.50;99.90
6903;DHT22;20232;49.408;8.702;2022-07-10T05:12:38;16.60;99.90
6903;DHT22;20232;49.408;8.702;2022-07-10T05:15:04;16.70;99.90
6903;DHT22;20232;49.408;8.702;2022-07-10T05:17:30;16.80;99.90
6903;DHT22;20232;49.408;8.702;2022-07-10T05:19:57;16.90;99.90
6903;DHT22;20232;49.408;8.702;2022-07-10T05:22:23;17.00;99.90
6903;DHT22;20232;49.408;8.702;2022-07-10T05:24:49;17.10;99.90
6903;DHT22;20232;49.408;8.702;2022-07-10T05:27:15;17.10;99.90
6903;DHT22;20232;49.408;8.702;2022-07-10T05:29:45;17.20;99.90
6903;DHT22;20232;49.408;8.702;2022-07-10T05:32:11;17.20;99.90
6903;DHT22;20232;49.408;8.702;2022-07-10T05:34:37;17.20;99.90
6903;DHT22;20232;49.408;8.702;2022-07-10T05:37:02;17.30;99.90
6903;DHT22;20232;49.408;8.702;2022-07-10T05:39:28;17.20;99.90
6903;DHT22;20232;49.408;8.702;2022-07-10T05:41:53;17.20;99.90
6903;DHT22;20232;49.408;8.702;2022-07-10T05:44:21;17.10;99.90
6903;DHT22;20232;49.408;8.702;2022-07-10T05:46:46;17.10;99.90
6903;DHT22;20232;49.408;8.702;2022-07-10T05:49:12;17.10;99.90
6903;DHT22;20232;49.408;8.702;2022-07-10T05:51:38;17.00;99.90
6903;DHT22;20232;49.408;8.702;2022-07-10T05:54:03;17.10;99.90
6903;DHT22;20232;49.408;8.702;2022-07-10T05:56:29;16.90;99.90
6903;DHT22;20232;49.408;8.702;2022-07-10T05:58:55;16.70;99.90
6903;DHT22;20232;49.408;8.702;2022-07-10T06:01:25;16.50;99.90
6903;DHT22;20232;49.408;8.702;2022-07-10T06:03:52;16.50;99.90
6903;DHT22;20232;49.408;8.702;2022-07-10T06:06:17;16.40;99.90
6903;DHT22;20232;49.408;8.702;2022-07-10T06:08:44;16.60;99.90
6903;DHT22;20232;49.408;8.702;2022-07-10T06:11:10;16.70;99.90
6903;DHT22;20232;49.408;8.702;2022-07-10T06:13:36;16.70;99.90
6903;DHT22;20232;49.408;8.702;2022-07-10T06:16:02;16.80;99.90
6903;DHT22;20232;49.408;8.702;2022-07-10T06:18:29;16.90;99.90
6903;DHT22;20232;49.408;8.702;2022-07-10T06:20:55;17.00;99.90
6903;DHT22;20232;49.408;8.702;2022-07-10T06:23:20;16.80;99.90
6903;DHT22;20232;49.408;8.702;2022-07-10T06:25:46;16.80;99.90
6903;DHT22;20232;49.408;8.702;2022-07-10T06:28:14;16.70;99.90
6903;DHT22;20232;49.408;8.702;2022-07-10T06:30:39;16.80;99.90
6903;DHT22;20232;49.408;8.702;2022-07-10T06:33:05;16.70;99.90
6903;DHT22;20232;49.408;8.702;2022-07-10T06:35:30;16.70;99.90
6903;DHT22;20232;49.408;8.702;2022-07-10T06:37:56;16.70;99.90
6903;DHT22;20232;49.408;8.702;2022-07-10T06:40:21;16.60;99.90
6903;DHT22;20232;49.408;8.702;2022-07-10T06:42:47;16.70;99.90
6903;DHT22;20232;49.408;8.702;2022-07-10T06:45:13;16.70;99.90
6903;DHT22;20232;49.408;8.702;2022-07-10T06:47:39;16.70;99.90
6903;DHT22;20232;49.408;8.702;2022-07-10T06:50:26;16.70;99.90
6903;DHT22;20232;49.408;8.702;2022-07-10T06:52:55;16.60;99.90
6903;DHT22;20232;49.408;8.702;2022-07-10T06:55:20;16.60;99.90
6903;DHT22;20232;49.408;8.702;2022-07-10T06:57:46;16.50;99.90
6903;DHT22;20232;49.408;8.702;2022-07-10T07:00:12;16.50;99.90
6903;DHT22;20232;49.408;8.702;2022-07-10T07:02:38;16.50;99.90
6903;DHT22;20232;49.408;8.702;2022-07-10T07:05:05;16.60;99.90
6903;DHT22;20232;49.408;8.702;2022-07-10T07:07:31;16.70;99.90
6903;DHT22;20232;49.408;8.702;2022-07-10T07:09:56;17.00;99.90
6903;DHT22;20232;49.408;8.702;2022-07-10T07:12:22;17.20;99.90
6903;DHT22;20232;49.408;8.702;2022-07-10T07:14:48;17.50;99.90
6903;DHT22;20232;49.408;8.702;2022-07-10T07:17:13;17.80;99.90
6903;DHT22;20232;49.408;8.702;2022-07-10T07:19:46;17.90;99.90
6903;DHT22;20232;49.408;8.702;2022-07-10T07:22:30;17.70;99.90
6903;DHT22;20232;49.408;8.702;2022-07-10T07:25:14;17.40;99.90
6903;DHT22;20232;49.408;8.702;2022-07-10T07:27:40;17.10;99.90
6903;DHT22;20232;49.408;8.702;2022-07-10T07:30:11;17.00;99.90
6903;DHT22;20232;49.408;8.702;2022-07-10T07:32:40;16.80;99.90
6903;DHT22;20232;49.408;8.702;2022-07-10T07:35:07;16.80;99.90
6903;DHT22;20232;49.408;8.702;2022-07-10T07:37:39;16.70;99.90
6903;DHT22;20232;49.408;8.702;2022-07-10T07:40:08;16.70;99.90
6903;DHT22;20232;49.408;8.702;2022-07-10T07:42:34;16.80;99.90
6903;DHT22;20232;49.408;8.702;2022-07-10T07:45:00;16.80;99.90
6903;DHT22;20232;49.408;8.702;2022-07-10T07:47:26;16.80;99.90
6903;DHT22;20232;49.408;8.702;2022-07-10T07:49:52;16.80;99.90
6903;DHT22;20232;49.408;8.702;2022-07-10T07:52:18;16.70;99.90
6903;DHT22;20232;49.408;8.702;2022-07-10T07:54:43;16.60;99.90
6903;DHT22;20232;49.408;8.702;2022-07-10T07:57:09;16.40;99.90
6903;DHT22;20232;49.408;8.702;2022-07-10T07:59:35;16.50;99.90
6903;DHT22;20232;49.408;8.702;2022-07-10T08:02:01;16.50;99.90
6903;DHT22;20232;49.408;8.702;2022-07-10T08:04:27;16.50;99.90
6903;DHT22;20232;49.408;8.702;2022-07-10T08:06:52;16.40;99.90
6903;DHT22;20232;49.408;8.702;2022-07-10T08:09:19;16.50;99.90
6903;DHT22;20232;49.408;8.702;2022-07-10T08:11:45;17.10;99.80
6903;DHT22;20232;49.408;8.702;2022-07-10T08:14:12;17.70;98.60
6903;DHT22;20232;49.408;8.702;2022-07-10T08:16:38;17.80;97.60
6903;DHT22;20232;49.408;8.702;2022-07-10T08:19:03;17.70;97.20
6903;DHT22;20232;49.408;8.702;2022-07-10T08:21:29;18.30;95.00
6903;DHT22;20232;49.408;8.702;2022-07-10T08:23:55;19.20;92.50
6903;DHT22;20232;49.408;8.702;2022-07-10T08:26:21;19.60;91.00
6903;DHT22;20232;49.408;8.702;2022-07-10T08:28:46;20.20;90.20
6903;DHT22;20232;49.408;8.702;2022-07-10T08:31:12;21.00;86.50
6903;DHT22;20232;49.408;8.702;2022-07-10T08:33:38;20.90;84.20
6903;DHT22;20232;49.408;8.702;2022-07-10T08:36:04;21.00;82.10
6903;DHT22;20232;49.408;8.702;2022-07-10T08:38:30;21.00;80.90
6903;DHT22;20232;49.408;8.702;2022-07-10T08:40:56;20.40;81.60
6903;DHT22;20232;49.408;8.702;2022-07-10T08:43:23;20.10;81.50
6903;DHT22;20232;49.408;8.702;2022-07-10T08:45:50;19.90;82.50
6903;DHT22;20232;49.408;8.702;2022-07-10T08:48:22;20.40;82.30
6903;DHT22;20232;49.408;8.702;2022-07-10T08:50:52;21.10;81.20
6903;DHT22;20232;49.408;8.702;2022-07-10T08:53:38;22.00;78.10
6903;DHT22;20232;49.408;8.702;2022-07-10T08:56:04;22.90;73.40
6903;DHT22;20232;49.408;8.702;2022-07-10T08:58:33;23.00;70.60
6903;DHT22;20232;49.408;8.702;2022-07-10T09:00:59;23.20;70.50
6903;DHT22;20232;49.408;8.702;2022-07-10T09:03:25;23.20;68.90
6903;DHT22;20232;49.408;8.702;2022-07-10T09:05:50;23.20;68.70
6903;DHT22;20232;49.408;8.702;2022-07-10T09:08:27;23.50;69.40
6903;DHT22;20232;49.408;8.702;2022-07-10T09:11:14;24.10;69.00
6903;DHT22;20232;49.408;8.702;2022-07-10T09:13:53;25.20;64.60
6903;DHT22;20232;49.408;8.702;2022-07-10T09:16:32;25.70;62.10
6903;DHT22;20232;49.408;8.702;2022-07-10T09:19:21;25.80;60.20
6903;DHT22;20232;49.408;8.702;2022-07-10T09:21:51;25.10;61.40
6903;DHT22;20232;49.408;8.702;2022-07-10T09:24:17;23.90;63.50
6903;DHT22;20232;49.408;8.702;2022-07-10T09:29:19;23.50;65.40
6903;DHT22;20232;49.408;8.702;2022-07-10T09:32:00;24.40;66.20
6903;DHT22;20232;49.408;8.702;2022-07-10T09:34:41;24.40;61.30
6903;DHT22;20232;49.408;8.702;2022-07-10T09:39:55;23.20;65.20
6903;DHT22;20232;49.408;8.702;2022-07-10T09:42:42;24.00;62.00
6903;DHT22;20232;49.408;8.702;2022-07-10T09:47:59;22.90;64.30
6903;DHT22;20232;49.408;8.702;2022-07-10T09:50:29;22.10;65.30
6903;DHT22;20232;49.408;8.702;2022-07-10T09:53:02;22.40;64.50
6903;DHT22;20232;49.408;8.702;2022-07-10T09:55:31;22.50;62.80
6903;DHT22;20232;49.408;8.702;2022-07-10T09:58:04;22.40;64.10
6903;DHT22;20232;49.408;8.702;2022-07-10T10:00:40;21.80;64.50
6903;DHT22;20232;49.408;8.702;2022-07-10T10:03:10;21.20;66.10
6903;DHT22;20232;49.408;8.702;2022-07-10T10:05:43;21.00;67.90
6903;DHT22;20232;49.408;8.702;2022-07-10T10:08:14;21.10;67.90
6903;DHT22;20232;49.408;8.702;2022-07-10T10:10:46;21.40;67.80
6903;DHT22;20232;49.408;8.702;2022-07-10T10:13:16;21.80;66.00
6903;DHT22;20232;49.408;8.702;2022-07-10T10:15:43;23.10;64.40
6903;DHT22;20232;49.408;8.702;2022-07-10T10:18:10;23.70;62.80
6903;DHT22;20232;49.408;8.702;2022-07-10T10:20:37;23.40;63.60
6903;DHT22;20232;49.408;8.702;2022-07-10T10:23:04;23.20;62.90
6903;DHT22;20232;49.408;8.702;2022-07-10T10:25:32;22.60;63.20
6903;DHT22;20232;49.408;8.702;2022-07-10T10:28:00;22.20;65.20
6903;DHT22;20232;49.408;8.702;2022-07-10T10:30:26;22.30;64.30
6903;DHT22;20232;49.408;8.702;2022-07-10T10:32:52;21.70;64.20
6903;DHT22;20232;49.408;8.702;2022-07-10T10:35:44;21.50;65.70
6903;DHT22;20232;49.408;8.702;2022-07-10T10:38:14;22.00;65.10
6903;DHT22;20232;49.408;8.702;2022-07-10T10:40:41;23.50;62.10
6903;DHT22;20232;49.408;8.702;2022-07-10T10:43:19;24.70;59.40
6903;DHT22;20232;49.408;8.702;2022-07-10T10:45:49;24.50;58.30
6903;DHT22;20232;49.408;8.702;2022-07-10T10:48:17;23.50;60.40
6903;DHT22;20232;49.408;8.702;2022-07-10T10:53:24;23.70;60.60
6903;DHT22;20232;49.408;8.702;2022-07-10T10:58:44;25.00;57.80
6903;DHT22;20232;49.408;8.702;2022-07-10T11:01:23;24.30;59.60
6903;DHT22;20232;49.408;8.702;2022-07-10T11:06:49;23.60;60.70
6903;DHT22;20232;49.408;8.702;2022-07-10T11:12:00;24.90;57.70
6903;DHT22;20232;49.408;8.702;2022-07-10T11:14:27;24.60;57.90
6903;DHT22;20232;49.408;8.702;2022-07-10T11:16:57;24.10;58.90
6903;DHT22;20232;49.408;8.702;2022-07-10T11:19:27;23.40;59.60
6903;DHT22;20232;49.408;8.702;2022-07-10T11:28:06;24.20;59.60
6903;DHT22;20232;49.408;8.702;2022-07-10T11:30:45;24.70;57.90
6903;DHT22;20232;49.408;8.702;2022-07-10T11:33:11;24.40;57.10
6903;DHT22;20232;49.408;8.702;2022-07-10T11:35:38;25.00;56.90
6903;DHT22;20232;49.408;8.702;2022-07-10T11:38:05;25.20;56.90
6903;DHT22;20232;49.408;8.702;2022-07-10T11:40:34;26.30;57.00
6903;DHT22;20232;49.408;8.702;2022-07-10T11:43:00;27.70;53.60
6903;DHT22;20232;49.408;8.702;2022-07-10T11:45:31;28.50;52.90
6903;DHT22;20232;49.408;8.702;2022-07-10T11:47:58;30.40;49.00
6903;DHT22;20232;49.408;8.702;2022-07-10T11:50:24;29.60;47.80
6903;DHT22;20232;49.408;8.702;2022-07-10T11:52:52;29.50;49.40
6903;DHT22;20232;49.408;8.702;2022-07-10T11:55:20;29.80;47.20
6903;DHT22;20232;49.408;8.702;2022-07-10T11:57:46;29.30;48.00
6903;DHT22;20232;49.408;8.702;2022-07-10T12:00:28;29.50;47.90
6903;DHT22;20232;49.408;8.702;2022-07-10T12:02:56;29.70;47.50
6903;DHT22;20232;49.408;8.702;2022-07-10T12:05:40;30.70;46.90
6903;DHT22;20232;49.408;8.702;2022-07-10T12:08:07;31.00;46.20
6903;DHT22;20232;49.408;8.702;2022-07-10T12:10:33;28.70;47.70
6903;DHT22;20232;49.408;8.702;2022-07-10T12:13:11;26.20;51.70
6903;DHT22;20232;49.408;8.702;2022-07-10T12:15:44;26.10;52.60
6903;DHT22;20232;49.408;8.702;2022-07-10T12:18:21;27.20;51.30
6903;DHT22;20232;49.408;8.702;2022-07-10T12:20:48;27.20;51.60
6903;DHT22;20232;49.408;8.702;2022-07-10T12:23:18;27.20;50.70
6903;DHT22;20232;49.408;8.702;2022-07-10T12:25:45;27.30;51.60
6903;DHT22;20232;49.408;8.702;2022-07-10T12:28:11;29.10;49.00
6903;DHT22;20232;49.408;8.702;2022-07-10T12:30:44;29.00;48.30
6903;DHT22;20232;49.408;8.702;2022-07-10T12:33:18;28.00;49.60
6903;DHT22;20232;49.408;8.702;2022-07-10T12:35:49;28.20;49.90
6903;DHT22;20232;49.408;8.702;2022-07-10T12:38:19;28.90;49.60
6903;DHT22;20232;49.408;8.702;2022-07-10T12:40:44;29.30;48.30
6903;DHT22;20232;49.408;8.702;2022-07-10T12:43:10;28.70;49.10
6903;DHT22;20232;49.408;8.702;2022-07-10T12:45:37;29.30;49.50
6903;DHT22;20232;49.408;8.702;2022-07-10T12:48:04;30.50;46.80
6903;DHT22;20232;49.408;8.702;2022-07-10T12:50:31;30.40;49.50
6903;DHT22;20232;49.408;8.702;2022-07-10T12:53:10;29.20;50.00
6903;DHT22;20232;49.408;8.702;2022-07-10T12:55:38;29.80;49.00
6903;DHT22;20232;49.408;8.702;2022-07-10T12:58:10;31.80;47.00
6903;DHT22;20232;49.408;8.702;2022-07-10T13:00:46;33.10;46.70
6903;DHT22;20232;49.408;8.702;2022-07-10T13:03:19;34.50;43.20
6903;DHT22;20232;49.408;8.702;2022-07-10T13:05:45;36.10;40.70
6903;DHT22;20232;49.408;8.702;2022-07-10T13:08:12;35.60;40.50
6903;DHT22;20232;49.408;8.702;2022-07-10T13:10:41;35.50;41.40
6903;DHT22;20232;49.408;8.702;2022-07-10T13:13:07;36.30;39.10
6903;DHT22;20232;49.408;8.702;2022-07-10T13:15:33;34.70;39.70
6903;DHT22;20232;49.408;8.702;2022-07-10T13:18:21;32.10;42.40
6903;DHT22;20232;49.408;8.702;2022-07-10T13:20:49;32.30;43.30
6903;DHT22;20232;49.408;8.702;2022-07-10T13:23:15;31.60;44.80
6903;DHT22;20232;49.408;8.702;2022-07-10T13:25:41;31.10;44.40
6903;DHT22;20232;49.408;8.702;2022-07-10T13:28:08;30.10;45.40
6903;DHT22;20232;49.408;8.702;2022-07-10T13:30:35;28.80;48.90
6903;DHT22;20232;49.408;8.702;2022-07-10T13:33:00;28.60;48.60
6903;DHT22;20232;49.408;8.702;2022-07-10T13:35:31;28.30;50.10
6903;DHT22;20232;49.408;8.702;2022-07-10T13:37:57;28.20;48.60
6903;DHT22;20232;49.408;8.702;2022-07-10T13:40:29;27.30;50.10
6903;DHT22;20232;49.408;8.702;2022-07-10T13:42:55;26.20;51.60
6903;DHT22;20232;49.408;8.702;2022-07-10T13:45:22;25.70;53.00
6903;DHT22;20232;49.408;8.702;2022-07-10T13:47:48;25.40;54.50
6903;DHT22;20232;49.408;8.702;2022-07-10T13:50:14;25.40;55.40
6903;DHT22;20232;49.408;8.702;2022-07-10T13:52:39;25.70;54.60
6903;DHT22;20232;49.408;8.702;2022-07-10T13:55:05;26.00;54.10
6903;DHT22;20232;49.408;8.702;2022-07-10T13:57:35;26.60;52.50
6903;DHT22;20232;49.408;8.702;2022-07-10T14:00:00;26.50;52.00
6903;DHT22;20232;49.408;8.702;2022-07-10T14:02:29;26.60;52.80
6903;DHT22;20232;49.408;8.702;2022-07-10T14:04:55;26.20;54.00
6903;DHT22;20232;49.408;8.702;2022-07-10T14:07:20;25.60;54.00
6903;DHT22;20232;49.408;8.702;2022-07-10T14:09:46;25.40;54.30
6903;DHT22;20232;49.408;8.702;2022-07-10T14:12:11;25.20;54.60
6903;DHT22;20232;49.408;8.702;2022-07-10T14:14:37;24.80;56.30
6903;DHT22;20232;49.408;8.702;2022-07-10T14:17:03;24.40;56.80
6903;DHT22;20232;49.408;8.702;2022-07-10T14:19:29;24.30;57.10
6903;DHT22;20232;49.408;8.702;2022-07-10T14:21:54;24.40;57.20
6903;DHT22;20232;49.408;8.702;2022-07-10T14:24:20;24.60;56.50
6903;DHT22;20232;49.408;8.702;2022-07-10T14:26:45;24.70;56.60
6903;DHT22;20232;49.408;8.702;2022-07-10T14:29:12;24.40;56.50
6903;DHT22;20232;49.408;8.702;2022-07-10T14:31:38;24.40;57.90
6903;DHT22;20232;49.408;8.702;2022-07-10T14:34:04;24.80;57.10
6903;DHT22;20232;49.408;8.702;2022-07-10T14:36:30;25.80;56.30
6903;DHT22;20232;49.408;8.702;2022-07-10T14:38:56;27.40;53.40
6903;DHT22;20232;49.408;8.702;2022-07-10T14:41:23;27.50;52.40
6903;DHT22;20232;49.408;8.702;2022-07-10T14:43:50;26.80;52.70
6903;DHT22;20232;49.408;8.702;2022-07-10T14:46:15;25.90;54.80
6903;DHT22;20232;49.408;8.702;2022-07-10T14:48:41;25.20;55.70
6903;DHT22;20232;49.408;8.702;2022-07-10T14:51:07;24.70;56.80
6903;DHT22;20232;49.408;8.702;2022-07-10T14:53:34;24.40;57.80
6903;DHT22;20232;49.408;8.702;2022-07-10T14:56:04;24.50;57.90
6903;DHT22;20232;49.408;8.702;2022-07-10T14:58:34;24.60;57.90
6903;DHT22;20232;49.408;8.702;2022-07-10T15:01:00;24.70;57.80
6903;DHT22;20232;49.408;8.702;2022-07-10T15:03:26;24.40;57.80
6903;DHT22;20232;49.408;8.702;2022-07-10T15:05:52;24.50;58.00
6903;DHT22;20232;49.408;8.702;2022-07-10T15:08:23;24.70;58.20
6903;DHT22;20232;49.408;8.702;2022-07-10T15:10:49;24.50;57.60
6903;DHT22;20232;49.408;8.702;2022-07-10T15:13:15;24.20;57.70
6903;DHT22;20232;49.408;8.702;2022-07-10T15:15:41;23.80;58.30
6903;DHT22;20232;49.408;8.702;2022-07-10T15:18:07;23.70;59.50
6903;DHT22;20232;49.408;8.702;2022-07-10T15:20:33;23.60;59.80
6903;DHT22;20232;49.408;8.702;2022-07-10T15:22:59;23.70;59.20
6903;DHT22;20232;49.408;8.702;2022-07-10T15:25:25;24.10;59.40
6903;DHT22;20232;49.408;8.702;2022-07-10T15:27:51;24.20;58.80
6903;DHT22;20232;49.408;8.702;2022-07-10T15:30:17;24.30;58.80
6903;DHT22;20232;49.408;8.702;2022-07-10T15:32:42;24.30;58.60
6903;DHT22;20232;49.408;8.702;2022-07-10T15:35:08;24.20;59.00
6903;DHT22;20232;49.408;8.702;2022-07-10T15:37:35;24.20;58.90
6903;DHT22;20232;49.408;8.702;2022-07-10T15:40:00;24.00;59.20
6903;DHT22;20232;49.408;8.702;2022-07-10T15:42:26;23.80;59.40
6903;DHT22;20232;49.408;8.702;2022-07-10T15:44:52;23.40;60.20
6903;DHT22;20232;49.408;8.702;2022-07-10T15:47:17;23.10;60.70
6903;DHT22;20232;49.408;8.702;2022-07-10T15:49:43;22.90;61.90
6903;DHT22;20232;49.408;8.702;2022-07-10T15:52:09;22.90;61.50
6903;DHT22;20232;49.408;8.702;2022-07-10T15:54:34;23.40;61.40
6903;DHT22;20232;49.408;8.702;2022-07-10T15:57:00;25.10;58.80
6903;DHT22;20232;49.408;8.702;2022-07-10T15:59:27;25.80;57.00
6903;DHT22;20232;49.408;8.702;2022-07-10T16:01:55;26.10;56.40
6903;DHT22;20232;49.408;8.702;2022-07-10T16:04:22;25.70;57.00
6903;DHT22;20232;49.408;8.702;2022-07-10T16:06:48;25.20;57.80
6903;DHT22;20232;49.408;8.702;2022-07-10T16:09:14;24.70;58.20
6903;DHT22;20232;49.408;8.702;2022-07-10T16:11:40;23.90;59.50
6903;DHT22;20232;49.408;8.702;2022-07-10T16:14:07;23.40;61.10
6903;DHT22;20232;49.408;8.702;2022-07-10T16:16:33;23.10;61.60
6903;DHT22;20232;49.408;8.702;2022-07-10T16:18:58;22.90;62.10
6903;DHT22;20232;49.408;8.702;2022-07-10T16:21:24;23.00;62.30
6903;DHT22;20232;49.408;8.702;2022-07-10T16:23:50;23.10;61.90
6903;DHT22;20232;49.408;8.702;2022-07-10T16:26:17;23.30;62.00
6903;DHT22;20232;49.408;8.702;2022-07-10T16:28:42;23.70;61.50
6903;DHT22;20232;49.408;8.702;2022-07-10T16:31:08;24.00;61.00
6903;DHT22;20232;49.408;8.702;2022-07-10T16:33:33;23.90;60.50
6903;DHT22;20232;49.408;8.702;2022-07-10T16:35:59;23.70;61.40
6903;DHT22;20232;49.408;8.702;2022-07-10T16:38:25;23.50;61.50
6903;DHT22;20232;49.408;8.702;2022-07-10T16:40:52;23.30;62.30
6903;DHT22;20232;49.408;8.702;2022-07-10T16:43:18;23.30;63.00
6903;DHT22;20232;49.408;8.702;2022-07-10T16:45:45;23.20;63.30
6903;DHT22;20232;49.408;8.702;2022-07-10T16:48:11;23.20;63.40
6903;DHT22;20232;49.408;8.702;2022-07-10T16:50:37;23.00;63.50
6903;DHT22;20232;49.408;8.702;2022-07-10T16:53:03;22.80;64.60
6903;DHT22;20232;49.408;8.702;2022-07-10T16:55:29;22.70;65.30
6903;DHT22;20232;49.408;8.702;2022-07-10T16:57:55;22.70;65.20
6903;DHT22;20232;49.408;8.702;2022-07-10T17:00:21;22.50;65.70
6903;DHT22;20232;49.408;8.702;2022-07-10T17:02:46;22.40;66.70
6903;DHT22;20232;49.408;8.702;2022-07-10T17:05:12;22.40;66.00
6903;DHT22;20232;49.408;8.702;2022-07-10T17:07:39;22.30;66.40
6903;DHT22;20232;49.408;8.702;2022-07-10T17:10:06;22.30;66.10
6903;DHT22;20232;49.408;8.702;2022-07-10T17:12:32;22.20;66.40
6903;DHT22;20232;49.408;8.702;2022-07-10T17:14:58;22.10;67.00
6903;DHT22;20232;49.408;8.702;2022-07-10T17:17:24;21.90;68.00
6903;DHT22;20232;49.408;8.702;2022-07-10T17:19:50;22.00;68.50
6903;DHT22;20232;49.408;8.702;2022-07-10T17:22:17;21.90;68.60
6903;DHT22;20232;49.408;8.702;2022-07-10T17:24:43;22.00;68.50
6903;DHT22;20232;49.408;8.702;2022-07-10T17:27:09;21.90;68.70
6903;DHT22;20232;49.408;8.702;2022-07-10T17:29:35;21.70;69.50
6903;DHT22;20232;49.408;8.702;2022-07-10T17:32:01;21.70;70.50
6903;DHT22;20232;49.408;8.702;2022-07-10T17:34:27;21.70;70.50
6903;DHT22;20232;49.408;8.702;2022-07-10T17:36:53;21.70;70.40
6903;DHT22;20232;49.408;8.702;2022-07-10T17:39:19;21.70;70.80
6903;DHT22;20232;49.408;8.702;2022-07-10T17:41:44;21.40;71.60
6903;DHT22;20232;49.408;8.702;2022-07-10T17:44:10;21.20;72.50
6903;DHT22;20232;49.408;8.702;2022-07-10T17:46:36;21.10;72.90
6903;DHT22;20232;49.408;8.702;2022-07-10T17:49:02;21.00;73.00
6903;DHT22;20232;49.408;8.702;2022-07-10T17:51:28;21.00;72.70
6903;DHT22;20232;49.408;8.702;2022-07-10T17:53:57;20.90;72.90
6903;DHT22;20232;49.408;8.702;2022-07-10T17:56:22;20.90;73.30
6903;DHT22;20232;49.408;8.702;2022-07-10T17:58:49;20.90;73.50
6903;DHT22;20232;49.408;8.702;2022-07-10T18:01:24;20.80;73.80
6903;DHT22;20232;49.408;8.702;2022-07-10T18:03:50;20.80;74.10
6903;DHT22;20232;49.408;8.702;2022-07-10T18:06:15;20.90;74.00
6903;DHT22;20232;49.408;8.702;2022-07-10T18:08:41;20.90;74.10
6903;DHT22;20232;49.408;8.702;2022-07-10T18:11:10;20.90;75.00
6903;DHT22;20232;49.408;8.702;2022-07-10T18:13:36;20.90;74.40
6903;DHT22;20232;49.408;8.702;2022-07-10T18:16:02;21.00;74.40
6903;DHT22;20232;49.408;8.702;2022-07-10T18:18:43;21.00;74.80
6903;DHT22;20232;49.408;8.702;2022-07-10T18:21:10;20.80;74.70
6903;DHT22;20232;49.408;8.702;2022-07-10T18:23:37;20.70;75.50
6903;DHT22;20232;49.408;8.702;2022-07-10T18:26:04;20.60;75.40
6903;DHT22;20232;49.408;8.702;2022-07-10T18:28:30;20.50;75.90
6903;DHT22;20232;49.408;8.702;2022-07-10T18:30:56;20.60;76.30
6903;DHT22;20232;49.408;8.702;2022-07-10T18:33:22;20.60;76.40
6903;DHT22;20232;49.408;8.702;2022-07-10T18:36:07;20.70;76.40
6903;DHT22;20232;49.408;8.702;2022-07-10T18:38:34;20.60;76.50
6903;DHT22;20232;49.408;8.702;2022-07-10T18:41:00;20.60;76.70
6903;DHT22;20232;49.408;8.702;2022-07-10T18:43:28;20.60;77.00
6903;DHT22;20232;49.408;8.702;2022-07-10T18:45:55;20.60;77.20
6903;DHT22;20232;49.408;8.702;2022-07-10T18:48:21;20.50;77.20
6903;DHT22;20232;49.408;8.702;2022-07-10T18:50:47;20.50;77.60
6903;DHT22;20232;49.408;8.702;2022-07-10T18:53:13;20.50;77.80
6903;DHT22;20232;49.408;8.702;2022-07-10T18:55:38;20.30;78.20
6903;DHT22;20232;49.408;8.702;2022-07-10T18:58:04;20.20;78.70
6903;DHT22;20232;49.408;8.702;2022-07-10T19:00:30;20.10;79.20
6903;DHT22;20232;49.408;8.702;2022-07-10T19:02:55;20.20;79.70
6903;DHT22;20232;49.408;8.702;2022-07-10T19:05:21;20.10;79.70
6903;DHT22;20232;49.408;8.702;2022-07-10T19:07:47;20.10;79.60
6903;DHT22;20232;49.408;8.702;2022-07-10T19:10:13;20.00;79.90
6903;DHT22;20232;49.408;8.702;2022-07-10T19:12:38;20.00;80.50
6903;DHT22;20232;49.408;8.702;2022-07-10T19:15:04;20.00;80.90
6903;DHT22;20232;49.408;8.702;2022-07-10T19:17:30;20.00;81.00
6903;DHT22;20232;49.408;8.702;2022-07-10T19:19:57;19.80;81.40
6903;DHT22;20232;49.408;8.702;2022-07-10T19:22:22;19.80;82.00
6903;DHT22;20232;49.408;8.702;2022-07-10T19:24:48;19.70;82.40
6903;DHT22;20232;49.408;8.702;2022-07-10T19:27:13;19.70;82.90
6903;DHT22;20232;49.408;8.702;2022-07-10T19:29:39;19.60;82.80
6903;DHT22;20232;49.408;8.702;2022-07-10T19:32:05;19.60;83.20
6903;DHT22;20232;49.408;8.702;2022-07-10T19:34:31;19.60;83.40
6903;DHT22;20232;49.408;8.702;2022-07-10T19:36:57;19.60;83.80
6903;DHT22;20232;49.408;8.702;2022-07-10T19:39:22;19.60;84.50
6903;DHT22;20232;49.408;8.702;2022-07-10T19:41:48;19.50;84.50
6903;DHT22;20232;49.408;8.702;2022-07-10T19:44:14;19.50;84.90
6903;DHT22;20232;49.408;8.702;2022-07-10T19:46:39;19.50;85.10
6903;DHT22;20232;49.408;8.702;2022-07-10T19:49:05;19.50;85.30
6903;DHT22;20232;49.408;8.702;2022-07-10T19:51:31;19.50;85.70
6903;DHT22;20232;49.408;8.702;2022-07-10T19:53:56;19.40;86.00
6903;DHT22;20232;49.408;8.702;2022-07-10T19:56:22;19.40;86.40
6903;DHT22;20232;49.408;8.702;2022-07-10T19:58:47;19.40;86.90
6903;DHT22;20232;49.408;8.702;2022-07-10T20:01:13;19.40;86.80
6903;DHT22;20232;49.408;8.702;2022-07-10T20:03:39;19.40;86.90
6903;DHT22;20232;49.408;8.702;2022-07-10T20:06:05;19.40;87.30
6903;DHT22;20232;49.408;8.702;2022-07-10T20:08:31;19.30;87.40
6903;DHT22;20232;49.408;8.702;2022-07-10T20:10:56;19.30;87.70
6903;DHT22;20232;49.408;8.702;2022-07-10T20:13:22;19.30;88.00